Pflugerville's Hourly Summary for Tuesday, May 15, 2018
Hour Temp
(f)
RH
(%)
Solar Rad.
(MJ/m2)
Rainfall
(in)
Wind
(mph)
5/15/2018 12:00 AM 77 80 0 0 5.69
5/15/2018 1:00 AM 76 83 0 0 6.13
5/15/2018 2:00 AM 75 89 0 0 8.14
5/15/2018 3:00 AM 73 99 0 0 9.38
5/15/2018 4:00 AM 72 100 0 0 9.13
5/15/2018 5:00 AM 72 100 0 0 8.37
5/15/2018 6:00 AM 71 100 0 0 5.43
5/15/2018 7:00 AM 71 100 0.01 0 3.41
5/15/2018 8:00 AM 71 100 0.16 0 1.98
5/15/2018 9:00 AM 73 100 0.45 0 4.28
5/15/2018 10:00 AM 75 100 0.89 0 8.8
5/15/2018 11:00 AM 78 90 1.97 0 8.45
5/15/2018 12:00 PM 80 80 2.74 0 7.74
5/15/2018 1:00 PM 82 72 3.3 0 6.84
5/15/2018 2:00 PM 83 69 2.74 0 5.93
5/15/2018 3:00 PM 85 63 2.78 0 5.38
5/15/2018 4:00 PM 86 57 2 0 6.05
5/15/2018 5:00 PM 86 54 1.05 0 5.75
5/15/2018 6:00 PM 86 52 1.49 0 5.16
5/15/2018 7:00 PM 85 52 0.4 0 2.73
5/15/2018 8:00 PM 83 56 0.03 0.01 0.59
5/15/2018 9:00 PM 81 60 0 0 4.69
5/15/2018 10:00 PM 78 73 0 0 5.64
5/15/2018 11:00 PM 77 78 0 0 0.68
Data Summary 78 79 20.01 0.01 5.68